Main page
METAR-TAF:

METAR-TAF

Airports :

Târgu Mureș International Airport

Târgu Mureş, Romania

latitude: 46-32N, longitude: 024-32E, elevation: 308 m

Current weather observation

The report was made 41 minutes ago, at 01:30 UTC
Wind 3 kt from the South
Temperature 1°C
Humidity 93%
Pressure 1012 hPa
Visibility: 5000 m
mist

METAR: LRTM 150130Z AUTO 19003KT 5000 BR NCD 01/00 Q1012

Time: 04:11 (02:11 UTC)

Forecast

The report was made 9 hours and 11 minutes ago, at 17:00 UTC
Forecast valid from 14 at 18 UTC to 15 at 03 UTC
Wind 4 kt from variable directions
Visibility: 5000 m
Overcast at a height of 4000 ft
rain, mist
Becoming
from 14 at 18 UTC to 14 at 20 UTC
Visibility: 3000 m
Broken clouds at a height of 1000 ft
mist
Probability 30% :
Temporary
from 14 at 22 UTC to 15 at 03 UTC
Visibility: 0800 m
Broken clouds at a height of 200 ft
fog

TAF: LRTM 141700Z 1418/1503 VRB04KT 5000 RA BR OVC040 BECMG 1418/1420 3000 BR BKN010 PROB30 TEMPO 1422/1503 0800 FG BKN002

Weather observations and forecasts of more than 4000 airports (METAR and TAF reports).

The available stations are represented by yellow and red dots on the map.

Hover mouse over dot to see the name of the station.

Then click to see weather observations and forecasts.

To change the map : click on the green buttons with a black cross to zoom in, on the green button with a dash to zoom out, or on the green arrows for adjacent maps.


METAR-TAF: